Time;durP1;ratioP1;P1;durP2;ratioP2;P2;SDS_P1;SDS_P2;PMS_P1;PMS_P2;Temp;Humidity;BMP_temperature;BMP_pressure;BME280_temperature;BME280_humidity;BME280_pressure;Samples;Min_cycle;Max_cycle;Signal;HPM_P1;HPM_P2
2022/01/04 00:00:29;;;;;;;0.37;0.30;;;;;;;;;;5080431;28;20544;-70
2022/01/04 00:02:57;;;;;;;0.43;0.30;;;;;;;;;;5080180;28;20206;-70
2022/01/04 00:05:24;;;;;;;0.40;0.40;;;;;;;;;;5080815;28;20206;-69
2022/01/04 00:07:51;;;;;;;0.10;0.10;;;;;;;;;;5082010;28;20222;-70
2022/01/04 00:10:22;;;;;;;0.33;0.10;;;;;;;;;;5080787;28;20202;-70
2022/01/04 00:15:39;;;;;;;0.00;0.00;;;;;;;;;;5082197;28;20221;-69
2022/01/04 00:18:06;;;;;;;0.67;0.30;;;;;;;;;;5085089;28;20199;-70
2022/01/04 00:20:34;;;;;;;0.93;0.33;;;;;;;;;;5084444;28;20198;-70
2022/01/04 00:23:01;;;;;;;0.33;0.33;;;;;;;;;;5085069;28;20198;-71
2022/01/04 00:25:28;;;;;;;0.10;0.10;;;;;;;;;;5083119;28;20206;-70
2022/01/04 00:27:56;;;;;;;0.00;0.00;;;;;;;;;;5085938;28;20221;-70
2022/01/04 00:30:28;;;;;;;0.60;0.60;;;;;;;;;;5083885;28;20675;-70
2022/01/04 00:32:57;;;;;;;0.73;0.73;;;;;;;;;;5082952;28;20229;-70
2022/01/04 00:35:24;;;;;;;0.10;0.10;;;;;;;;;;5083437;28;20580;-69
2022/01/04 00:37:52;;;;;;;0.00;0.00;;;;;;;;;;5084549;28;20979;-70
2022/01/04 00:40:19;;;;;;;1.23;1.13;;;;;;;;;;5082840;28;20198;-69
2022/01/04 00:42:47;;;;;;;0.17;0.17;;;;;;;;;;5083991;28;20675;-70
2022/01/04 00:45:14;;;;;;;0.10;0.10;;;;;;;;;;5083484;28;20201;-68
2022/01/04 00:49:09;;;;;;;0.10;0.10;;;;;;;;;;5084886;28;20214;-70
2022/01/04 00:50:31;;;;;;;0.00;0.00;;;;;;;;;;5084441;28;20248;-69
2022/01/04 00:52:59;;;;;;;0.93;0.73;;;;;;;;;;5083308;28;20203;-69
2022/01/04 00:55:27;;;;;;;0.00;0.00;;;;;;;;;;5081820;28;20206;-70
2022/01/04 00:57:55;;;;;;;1.40;1.03;;;;;;;;;;5084119;28;20202;-70
2022/01/04 01:00:23;;;;;;;0.20;0.20;;;;;;;;;;5082623;28;20573;-71
2022/01/04 01:02:50;;;;;;;0.50;0.50;;;;;;;;;;5081761;28;20198;-68
2022/01/04 01:05:19;;;;;;;0.00;0.00;;;;;;;;;;5082651;28;20191;-71
2022/01/04 01:07:47;;;;;;;0.10;0.10;;;;;;;;;;5083798;28;20226;-71
2022/01/04 01:10:34;;;;;;;0.60;0.40;;;;;;;;;;5082549;28;20985;-70
2022/01/04 01:13:01;;;;;;;0.73;0.20;;;;;;;;;;5084462;28;20225;-71
2022/01/04 01:15:29;;;;;;;0.10;0.10;;;;;;;;;;5083730;28;20194;-70
2022/01/04 01:17:56;;;;;;;0.20;0.10;;;;;;;;;;5083807;28;20206;-70
2022/01/04 01:20:24;;;;;;;0.67;0.67;;;;;;;;;;5079487;28;20219;-69
2022/01/04 01:22:52;;;;;;;0.43;0.43;;;;;;;;;;5081874;28;20264;-71
2022/01/04 01:25:20;;;;;;;0.60;0.60;;;;;;;;;;5082591;28;20206;-70
2022/01/04 01:27:47;;;;;;;0.00;0.00;;;;;;;;;;5081993;28;20271;-69
2022/01/04 01:30:15;;;;;;;0.10;0.10;;;;;;;;;;5080613;28;20549;-70
2022/01/04 01:32:42;;;;;;;0.63;0.63;;;;;;;;;;5082504;28;20292;-69
2022/01/04 01:35:10;;;;;;;0.13;0.13;;;;;;;;;;5084783;28;20782;-70
2022/01/04 01:37:37;;;;;;;0.20;0.20;;;;;;;;;;5082692;28;20207;-68
2022/01/04 01:40:07;;;;;;;0.03;0.03;;;;;;;;;;5080976;28;20218;-69
2022/01/04 01:42:34;;;;;;;0.90;0.90;;;;;;;;;;5082400;28;20198;-70
2022/01/04 01:45:02;;;;;;;0.00;0.00;;;;;;;;;;5083211;28;20213;-71
2022/01/04 01:47:29;;;;;;;0.00;0.00;;;;;;;;;;5081387;28;20723;-67
2022/01/04 01:49:57;;;;;;;0.00;0.00;;;;;;;;;;5083953;28;20209;-67
2022/01/04 01:52:24;;;;;;;0.00;0.00;;;;;;;;;;5083237;28;20742;-71
2022/01/04 01:54:53;;;;;;;0.40;0.40;;;;;;;;;;5081781;28;20198;-71
2022/01/04 09:34:11;;;;;;;1.23;1.13;;;;;;;;;;5111808;27;20951;-70
2022/01/04 09:36:40;;;;;;;2.67;0.20;;;;;;;;;;5111499;28;20199;-70
2022/01/04 09:39:10;;;;;;;1.07;0.97;;;;;;;;;;5108279;27;20199;-70
2022/01/04 09:41:37;;;;;;;0.07;0.07;;;;;;;;;;5111224;28;20584;-69
2022/01/04 09:44:06;;;;;;;2.73;2.33;;;;;;;;;;5110755;28;20226;-67
2022/01/04 09:46:34;;;;;;;1.30;1.23;;;;;;;;;;5105952;28;20205;-69
2022/01/04 09:49:01;;;;;;;14.13;1.63;;;;;;;;;;5114032;28;20193;-77
2022/01/04 09:51:31;;;;;;;0.50;0.50;;;;;;;;;;5104904;28;20895;-77
2022/01/04 09:53:59;;;;;;;0.30;0.30;;;;;;;;;;5113693;28;20213;-73
2022/01/04 09:56:27;;;;;;;0.57;0.27;;;;;;;;;;5116889;28;20197;-74
2022/01/04 09:58:54;;;;;;;0.00;0.00;;;;;;;;;;5108036;28;20699;-77
2022/01/04 10:01:23;;;;;;;0.00;0.00;;;;;;;;;;5106817;28;20201;-77
2022/01/04 10:03:51;;;;;;;0.00;0.00;;;;;;;;;;5112144;28;20301;-77
2022/01/04 10:06:19;;;;;;;0.13;0.13;;;;;;;;;;5112429;28;20879;-69
2022/01/04 10:08:55;;;;;;;0.00;0.00;;;;;;;;;;5114193;27;20195;-69
2022/01/04 10:11:30;;;;;;;0.00;0.00;;;;;;;;;;5112149;28;20670;-70
2022/01/04 10:13:58;;;;;;;0.00;0.00;;;;;;;;;;5114820;27;20677;-70
2022/01/04 10:16:26;;;;;;;0.30;0.30;;;;;;;;;;5106319;28;20719;-71
2022/01/04 10:18:53;;;;;;;0.00;0.00;;;;;;;;;;5096834;28;20202;-71
2022/01/04 10:21:21;;;;;;;0.00;0.00;;;;;;;;;;5098448;28;20206;-77
2022/01/04 10:23:57;;;;;;;0.00;0.00;;;;;;;;;;5100689;28;20227;-77
2022/01/04 10:26:28;;;;;;;0.00;0.00;;;;;;;;;;5095961;28;20208;-80
2022/01/04 10:28:56;;;;;;;0.00;0.00;;;;;;;;;;5097542;28;20564;-77
2022/01/04 10:31:23;;;;;;;0.00;0.00;;;;;;;;;;5091877;28;20205;-80
2022/01/04 10:33:53;;;;;;;0.00;0.00;;;;;;;;;;5093827;28;20235;-74
2022/01/04 10:36:21;;;;;;;0.00;0.00;;;;;;;;;;5095885;28;20221;-72
2022/01/04 10:38:51;;;;;;;0.00;0.00;;;;;;;;;;5091456;28;20812;-75
2022/01/04 10:41:26;;;;;;;0.00;0.00;;;;;;;;;;5095529;27;20205;-76
2022/01/04 10:43:54;;;;;;;0.00;0.00;;;;;;;;;;5087610;28;20229;-77
2022/01/04 10:46:31;;;;;;;0.00;0.00;;;;;;;;;;5080021;28;20195;-76
2022/01/04 10:48:58;;;;;;;0.00;0.00;;;;;;;;;;5076578;28;20242;-75
2022/01/04 10:51:26;;;;;;;0.00;0.00;;;;;;;;;;5079773;28;20202;-75
2022/01/04 10:53:54;;;;;;;0.00;0.00;;;;;;;;;;5079024;28;20205;-74
2022/01/04 10:56:26;;;;;;;0.00;0.00;;;;;;;;;;5083134;28;20911;-74
2022/01/04 10:58:56;;;;;;;0.00;0.00;;;;;;;;;;5081827;28;20210;-72
2022/01/04 11:01:27;;;;;;;0.00;0.00;;;;;;;;;;5099502;28;20270;-75
2022/01/04 11:03:55;;;;;;;0.07;0.07;;;;;;;;;;5096223;28;20324;-76
2022/01/04 11:06:25;;;;;;;0.00;0.00;;;;;;;;;;5095559;28;20678;-72
2022/01/04 11:08:52;;;;;;;1.00;1.00;;;;;;;;;;5094276;28;20203;-69
2022/01/04 11:11:20;;;;;;;0.00;0.00;;;;;;;;;;5084530;28;20197;-72
2022/01/04 11:13:51;;;;;;;0.00;0.00;;;;;;;;;;5084562;28;20224;-75
2022/01/04 11:19:04;;;;;;;0.00;0.00;;;;;;;;;;5115189;28;20682;-73
2022/01/04 11:21:32;;;;;;;0.00;0.00;;;;;;;;;;5092553;28;20284;-73
2022/01/04 11:24:01;;;;;;;0.20;0.10;;;;;;;;;;5089513;28;20206;-73
2022/01/04 11:26:29;;;;;;;0.20;0.20;;;;;;;;;;5084030;28;20194;-72
2022/01/04 11:28:58;;;;;;;0.00;0.00;;;;;;;;;;5089359;28;20197;-74
2022/01/04 11:31:45;;;;;;;0.00;0.00;;;;;;;;;;5099724;28;20197;-73
2022/01/04 11:34:17;;;;;;;0.67;0.50;;;;;;;;;;5091795;28;22353;-74
2022/01/04 11:36:45;;;;;;;0.03;0.03;;;;;;;;;;5082017;28;20209;-74
2022/01/04 11:39:33;;;;;;;0.00;0.00;;;;;;;;;;5083189;28;20199;-72
2022/01/04 11:42:01;;;;;;;0.13;0.10;;;;;;;;;;5084678;28;20190;-71
2022/01/04 11:44:31;;;;;;;0.10;0.10;;;;;;;;;;5083337;28;20198;-71
2022/01/04 11:47:03;;;;;;;0.00;0.00;;;;;;;;;;5082110;28;20202;-73
2022/01/04 11:49:30;;;;;;;0.00;0.00;;;;;;;;;;5077646;28;20203;-74
2022/01/04 11:51:58;;;;;;;0.00;0.00;;;;;;;;;;5082587;28;20219;-73
2022/01/04 11:54:27;;;;;;;0.47;0.47;;;;;;;;;;5090863;28;20229;-72
2022/01/04 11:56:56;;;;;;;0.00;0.00;;;;;;;;;;5088048;28;20210;-72
2022/01/04 11:59:25;;;;;;;0.00;0.00;;;;;;;;;;5089904;28;20694;-73
2022/01/04 12:01:54;;;;;;;0.00;0.00;;;;;;;;;;5089996;28;20211;-71
2022/01/04 12:04:52;;;;;;;0.00;0.00;;;;;;;;;;5093251;28;20190;-75
2022/01/04 12:07:37;;;;;;;0.00;0.00;;;;;;;;;;5006738;28;20590;-74
2022/01/04 12:10:24;;;;;;;0.00;0.00;;;;;;;;;;5070885;28;20568;-74
2022/01/04 12:12:58;;;;;;;0.00;0.00;;;;;;;;;;5079431;28;20230;-75
2022/01/04 12:15:44;;;;;;;0.00;0.00;;;;;;;;;;5085816;28;20293;-72
2022/01/04 12:18:33;;;;;;;0.00;0.00;;;;;;;;;;5080758;28;20217;-79
2022/01/04 12:21:01;;;;;;;0.00;0.00;;;;;;;;;;5090176;28;20333;-73
2022/01/04 12:23:48;;;;;;;0.00;0.00;;;;;;;;;;5092417;28;20198;-75
2022/01/04 12:26:22;;;;;;;0.20;0.10;;;;;;;;;;5079297;28;20242;-73
2022/01/04 12:29:04;;;;;;;0.00;0.00;;;;;;;;;;5082522;28;20431;-74
2022/01/04 12:31:33;;;;;;;0.00;0.00;;;;;;;;;;5087052;28;20639;-72
2022/01/04 12:34:04;;;;;;;0.00;0.00;;;;;;;;;;5089025;28;20230;-71
2022/01/04 12:36:33;;;;;;;0.00;0.00;;;;;;;;;;5080128;28;20213;-70
2022/01/04 12:39:01;;;;;;;0.27;0.27;;;;;;;;;;5079708;28;20203;-70
2022/01/04 12:41:30;;;;;;;0.00;0.00;;;;;;;;;;5084045;28;21124;-69
2022/01/04 12:43:58;;;;;;;0.20;0.20;;;;;;;;;;5082646;28;20209;-71
2022/01/04 12:46:26;;;;;;;0.00;0.00;;;;;;;;;;5076998;28;20210;-71
2022/01/04 12:48:56;;;;;;;0.73;0.47;;;;;;;;;;5073369;28;20206;-70
2022/01/04 12:51:25;;;;;;;0.00;0.00;;;;;;;;;;5077387;28;20575;-70
2022/01/04 12:53:53;;;;;;;0.00;0.00;;;;;;;;;;5074624;28;20226;-69
2022/01/04 12:56:20;;;;;;;0.20;0.20;;;;;;;;;;5076045;28;20386;-70
2022/01/04 12:58:48;;;;;;;0.30;0.30;;;;;;;;;;5072955;28;20623;-70
2022/01/04 13:01:15;;;;;;;0.00;0.00;;;;;;;;;;5073423;28;20297;-70
2022/01/04 13:03:43;;;;;;;0.00;0.00;;;;;;;;;;5078892;28;20199;-70
2022/01/04 13:06:11;;;;;;;0.00;0.00;;;;;;;;;;5074373;28;20213;-71
2022/01/04 13:08:39;;;;;;;0.00;0.00;;;;;;;;;;5072784;28;20674;-72
2022/01/04 13:11:07;;;;;;;0.00;0.00;;;;;;;;;;5079384;28;20849;-79
2022/01/04 13:13:35;;;;;;;0.00;0.00;;;;;;;;;;5083763;28;20578;-73
2022/01/04 13:16:17;;;;;;;0.00;0.00;;;;;;;;;;5083229;28;20232;-72
2022/01/04 13:18:44;;;;;;;0.00;0.00;;;;;;;;;;5077766;28;20194;-72
2022/01/04 13:21:13;;;;;;;0.00;0.00;;;;;;;;;;5081616;28;20199;-73
2022/01/04 13:23:42;;;;;;;0.00;0.00;;;;;;;;;;5089275;28;20194;-72
2022/01/04 13:26:11;;;;;;;0.00;0.00;;;;;;;;;;5092554;28;20194;-72
2022/01/04 13:28:39;;;;;;;0.00;0.00;;;;;;;;;;5086671;28;20198;-71
2022/01/04 13:31:06;;;;;;;0.00;0.00;;;;;;;;;;5088992;28;20198;-71
2022/01/04 13:33:38;;;;;;;0.00;0.00;;;;;;;;;;5094688;28;20233;-72
2022/01/04 13:36:09;;;;;;;0.00;0.00;;;;;;;;;;5092297;28;20252;-72
2022/01/04 13:38:37;;;;;;;0.00;0.00;;;;;;;;;;5089098;28;20201;-74
2022/01/04 13:41:08;;;;;;;0.30;0.30;;;;;;;;;;5092729;28;20193;-73
2022/01/04 13:43:39;;;;;;;0.00;0.00;;;;;;;;;;5091330;28;20220;-73
2022/01/04 13:46:12;;;;;;;0.00;0.00;;;;;;;;;;5092555;28;20221;-72
2022/01/04 13:48:41;;;;;;;0.00;0.00;;;;;;;;;;5093255;28;20195;-73
2022/01/04 13:51:10;;;;;;;0.00;0.00;;;;;;;;;;5089629;28;20205;-74
2022/01/04 13:53:37;;;;;;;0.00;0.00;;;;;;;;;;5092747;28;20586;-73
2022/01/04 13:56:10;;;;;;;0.00;0.00;;;;;;;;;;5089945;28;20199;-74
2022/01/04 13:58:42;;;;;;;0.00;0.00;;;;;;;;;;5088850;28;20236;-73
2022/01/04 14:01:13;;;;;;;0.00;0.00;;;;;;;;;;5084530;28;20201;-72
2022/01/04 14:03:41;;;;;;;0.00;0.00;;;;;;;;;;5080237;28;20202;-72
2022/01/04 14:06:23;;;;;;;0.00;0.00;;;;;;;;;;5075692;28;20663;-71
2022/01/04 14:08:50;;;;;;;0.10;0.10;;;;;;;;;;5073829;28;21559;-72
2022/01/04 14:11:24;;;;;;;0.00;0.00;;;;;;;;;;5078692;28;20210;-73
2022/01/04 14:13:52;;;;;;;0.00;0.00;;;;;;;;;;5089985;28;20345;-71
2022/01/04 14:16:20;;;;;;;0.00;0.00;;;;;;;;;;5091100;28;20669;-71
2022/01/04 14:19:04;;;;;;;0.00;0.00;;;;;;;;;;5093905;28;20205;-69
2022/01/04 14:21:33;;;;;;;0.00;0.00;;;;;;;;;;5092746;28;20210;-74
2022/01/04 14:24:00;;;;;;;0.00;0.00;;;;;;;;;;5081257;28;20226;-72
2022/01/04 14:26:29;;;;;;;0.00;0.00;;;;;;;;;;5087215;28;20214;-72
2022/01/04 14:28:57;;;;;;;0.00;0.00;;;;;;;;;;5087409;28;20222;-71
2022/01/04 14:31:25;;;;;;;0.00;0.00;;;;;;;;;;5079692;28;20228;-77
2022/01/04 14:33:52;;;;;;;0.00;0.00;;;;;;;;;;5084190;28;20291;-70
2022/01/04 14:36:20;;;;;;;0.00;0.00;;;;;;;;;;5091899;28;20596;-71
2022/01/04 14:38:47;;;;;;;0.00;0.00;;;;;;;;;;5087335;28;20289;-71
2022/01/04 14:41:15;;;;;;;0.00;0.00;;;;;;;;;;5081390;28;20209;-69
2022/01/04 14:43:43;;;;;;;0.50;0.13;;;;;;;;;;5086054;28;20190;-69
2022/01/04 14:46:11;;;;;;;0.00;0.00;;;;;;;;;;5088101;28;20198;-69
2022/01/04 14:48:38;;;;;;;0.00;0.00;;;;;;;;;;5086669;28;20210;-69
2022/01/04 14:51:06;;;;;;;0.00;0.00;;;;;;;;;;5081898;28;20206;-70
2022/01/04 14:53:33;;;;;;;0.00;0.00;;;;;;;;;;5083184;28;20203;-70
2022/01/04 14:56:05;;;;;;;0.00;0.00;;;;;;;;;;5079927;28;20214;-72
2022/01/04 14:58:32;;;;;;;0.00;0.00;;;;;;;;;;5083534;28;20275;-71
2022/01/04 15:01:01;;;;;;;0.00;0.00;;;;;;;;;;5079545;28;20236;-74
2022/01/04 15:03:30;;;;;;;0.00;0.00;;;;;;;;;;5079307;28;20647;-72
2022/01/04 15:05:57;;;;;;;0.00;0.00;;;;;;;;;;5083298;28;20233;-73
2022/01/04 15:08:25;;;;;;;0.00;0.00;;;;;;;;;;5081357;28;20671;-77
2022/01/04 15:10:52;;;;;;;0.00;0.00;;;;;;;;;;5080394;28;20201;-74
2022/01/04 15:13:20;;;;;;;0.00;0.00;;;;;;;;;;5084507;28;20233;-75
2022/01/04 15:15:47;;;;;;;0.00;0.00;;;;;;;;;;5081655;28;20268;-75
2022/01/04 15:18:16;;;;;;;0.00;0.00;;;;;;;;;;5080293;28;20772;-74
2022/01/04 15:20:44;;;;;;;0.00;0.00;;;;;;;;;;5078728;28;20198;-74
2022/01/04 15:23:11;;;;;;;0.00;0.00;;;;;;;;;;5081884;28;20209;-74
2022/01/04 15:25:38;;;;;;;0.00;0.00;;;;;;;;;;5082199;28;20205;-73
2022/01/04 15:28:06;;;;;;;0.00;0.00;;;;;;;;;;5086991;28;20202;-72
2022/01/04 15:30:33;;;;;;;0.00;0.00;;;;;;;;;;5098861;28;20225;-74
2022/01/04 15:33:01;;;;;;;0.00;0.00;;;;;;;;;;5093173;28;20229;-72
2022/01/04 15:35:31;;;;;;;0.00;0.00;;;;;;;;;;5098092;28;20221;-74
2022/01/04 15:37:59;;;;;;;0.00;0.00;;;;;;;;;;5097168;28;20298;-73
2022/01/04 15:40:26;;;;;;;0.00;0.00;;;;;;;;;;5089615;28;20576;-73
2022/01/04 15:42:54;;;;;;;0.00;0.00;;;;;;;;;;5100005;28;20220;-73
2022/01/04 15:45:21;;;;;;;0.00;0.00;;;;;;;;;;5097675;28;20214;-72
2022/01/04 15:47:48;;;;;;;0.00;0.00;;;;;;;;;;5093138;28;20198;-71
2022/01/04 15:50:16;;;;;;;0.00;0.00;;;;;;;;;;5094489;28;20198;-73
2022/01/04 15:52:46;;;;;;;0.00;0.00;;;;;;;;;;5087928;28;20207;-74
2022/01/04 15:55:13;;;;;;;0.00;0.00;;;;;;;;;;5082921;28;20234;-74
2022/01/04 15:57:41;;;;;;;0.00;0.00;;;;;;;;;;5081506;28;20629;-75
2022/01/04 16:00:09;;;;;;;0.10;0.10;;;;;;;;;;5077241;28;20199;-74
2022/01/04 16:02:37;;;;;;;0.00;0.00;;;;;;;;;;5077710;28;20212;-74
2022/01/04 16:05:05;;;;;;;0.00;0.00;;;;;;;;;;5077925;28;20198;-73
2022/01/04 16:07:32;;;;;;;0.00;0.00;;;;;;;;;;5080851;28;20198;-73
2022/01/04 16:10:01;;;;;;;0.00;0.00;;;;;;;;;;5078419;28;20205;-72
2022/01/04 16:12:31;;;;;;;0.00;0.00;;;;;;;;;;5080330;28;20259;-75
2022/01/04 16:15:01;;;;;;;0.00;0.00;;;;;;;;;;5083440;28;20819;-71
2022/01/04 16:17:37;;;;;;;0.00;0.00;;;;;;;;;;5098744;28;20231;-73
2022/01/04 16:22:59;;;;;;;0.00;0.00;;;;;;;;;;5096264;28;20257;-72
2022/01/04 16:25:28;;;;;;;0.00;0.00;;;;;;;;;;5076269;28;20281;-72
2022/01/04 16:27:56;;;;;;;0.10;0.10;;;;;;;;;;5078597;28;20203;-71
2022/01/04 16:30:23;;;;;;;0.00;0.00;;;;;;;;;;5077794;28;20207;-71
2022/01/04 16:32:51;;;;;;;0.00;0.00;;;;;;;;;;5078671;28;20241;-71
2022/01/04 16:35:18;;;;;;;0.00;0.00;;;;;;;;;;5079949;28;20593;-70
2022/01/04 16:37:46;;;;;;;0.10;0.03;;;;;;;;;;5078722;28;20297;-70
2022/01/04 16:40:15;;;;;;;0.00;0.00;;;;;;;;;;5080572;28;20198;-71
2022/01/04 16:42:44;;;;;;;0.00;0.00;;;;;;;;;;5076346;28;20314;-70
2022/01/04 16:45:12;;;;;;;0.00;0.00;;;;;;;;;;5084342;28;20610;-69
2022/01/04 16:47:40;;;;;;;0.00;0.00;;;;;;;;;;5088423;28;20198;-71
2022/01/04 16:50:08;;;;;;;0.00;0.00;;;;;;;;;;5078828;28;20199;-70
2022/01/04 16:52:36;;;;;;;0.00;0.00;;;;;;;;;;5078089;28;20285;-71
2022/01/04 16:55:04;;;;;;;0.00;0.00;;;;;;;;;;5074627;28;20703;-70
2022/01/04 16:57:32;;;;;;;0.00;0.00;;;;;;;;;;5074016;28;20276;-69
2022/01/04 17:00:01;;;;;;;0.00;0.00;;;;;;;;;;5075882;28;20256;-72
2022/01/04 17:02:28;;;;;;;0.00;0.00;;;;;;;;;;5079761;28;20197;-68
2022/01/04 17:04:55;;;;;;;0.00;0.00;;;;;;;;;;5075089;28;20217;-72
2022/01/04 17:07:23;;;;;;;0.00;0.00;;;;;;;;;;5075004;28;20824;-68
2022/01/04 17:09:54;;;;;;;0.00;0.00;;;;;;;;;;5072469;28;20198;-69
2022/01/04 17:12:35;;;;;;;0.00;0.00;;;;;;;;;;5069062;28;20202;-70
2022/01/04 17:17:50;;;;;;;2.70;0.00;;;;;;;;;;5071099;28;20567;-72
2022/01/04 17:20:18;;;;;;;0.10;0.00;;;;;;;;;;5078134;28;20205;-71
2022/01/04 17:22:45;;;;;;;0.00;0.00;;;;;;;;;;5079045;28;20193;-70
2022/01/04 17:25:15;;;;;;;0.00;0.00;;;;;;;;;;5073879;28;20233;-70
2022/01/04 17:27:43;;;;;;;0.00;0.00;;;;;;;;;;5068638;28;20206;-69
2022/01/04 17:30:14;;;;;;;0.00;0.00;;;;;;;;;;5068799;28;20290;-70
2022/01/04 17:32:42;;;;;;;0.00;0.00;;;;;;;;;;5070567;28;20234;-71
2022/01/04 17:35:10;;;;;;;0.00;0.00;;;;;;;;;;5067958;28;20317;-69
2022/01/04 17:37:38;;;;;;;0.00;0.00;;;;;;;;;;5071226;28;20198;-69
2022/01/04 17:40:06;;;;;;;0.00;0.00;;;;;;;;;;5068686;28;20198;-71
2022/01/04 17:42:34;;;;;;;0.00;0.00;;;;;;;;;;5076941;28;20207;-70
2022/01/04 17:45:01;;;;;;;0.00;0.00;;;;;;;;;;5072496;28;20664;-70
2022/01/04 17:47:30;;;;;;;0.00;0.00;;;;;;;;;;5067671;28;20206;-71
2022/01/04 17:49:58;;;;;;;0.00;0.00;;;;;;;;;;5068930;28;20214;-71
2022/01/04 17:52:25;;;;;;;0.00;0.00;;;;;;;;;;5074989;28;20583;-71
2022/01/04 17:54:52;;;;;;;0.00;0.00;;;;;;;;;;5078229;28;20225;-71
2022/01/04 17:57:20;;;;;;;0.00;0.00;;;;;;;;;;5073765;28;20202;-70
2022/01/04 17:59:49;;;;;;;0.00;0.00;;;;;;;;;;5073979;28;20209;-71
2022/01/04 18:02:16;;;;;;;0.00;0.00;;;;;;;;;;5073162;28;20201;-71
2022/01/04 18:04:45;;;;;;;0.00;0.00;;;;;;;;;;5078512;28;20202;-71
2022/01/04 18:07:12;;;;;;;0.00;0.00;;;;;;;;;;5077470;28;20198;-74
2022/01/04 18:09:40;;;;;;;0.00;0.00;;;;;;;;;;5079906;28;20198;-74
2022/01/04 18:12:08;;;;;;;0.00;0.00;;;;;;;;;;5080787;28;20205;-73
2022/01/04 18:14:35;;;;;;;0.00;0.00;;;;;;;;;;5075582;28;20289;-71
2022/01/04 18:17:03;;;;;;;0.00;0.00;;;;;;;;;;5077722;28;20214;-72
2022/01/04 18:19:30;;;;;;;0.00;0.00;;;;;;;;;;5070920;28;22176;-72
2022/01/04 18:22:01;;;;;;;0.00;0.00;;;;;;;;;;5073145;28;20215;-72
2022/01/04 18:24:28;;;;;;;0.00;0.00;;;;;;;;;;5073551;28;20685;-70
2022/01/04 18:26:55;;;;;;;0.00;0.00;;;;;;;;;;5071278;28;20210;-70
2022/01/04 18:29:23;;;;;;;0.00;0.00;;;;;;;;;;5072306;28;20206;-71
2022/01/04 18:31:50;;;;;;;0.00;0.00;;;;;;;;;;5076706;28;21016;-71
2022/01/04 18:34:18;;;;;;;0.00;0.00;;;;;;;;;;5078507;28;20258;-71
2022/01/04 18:36:45;;;;;;;0.00;0.00;;;;;;;;;;5077885;28;20230;-71
2022/01/04 18:39:14;;;;;;;0.00;0.00;;;;;;;;;;5073876;28;20214;-71
2022/01/04 18:41:41;;;;;;;0.00;0.00;;;;;;;;;;5038112;27;20233;-71
2022/01/04 18:44:09;;;;;;;0.00;0.00;;;;;;;;;;5038415;28;20693;-70
2022/01/04 18:46:36;;;;;;;0.00;0.00;;;;;;;;;;5038143;28;20210;-71
2022/01/04 18:49:04;;;;;;;0.00;0.00;;;;;;;;;;5040090;28;20240;-71
2022/01/04 18:51:32;;;;;;;0.00;0.00;;;;;;;;;;5037715;28;20208;-71
2022/01/04 18:53:59;;;;;;;0.00;0.00;;;;;;;;;;5039506;28;20926;-71
2022/01/04 18:56:28;;;;;;;0.00;0.00;;;;;;;;;;5038121;28;20223;-72
2022/01/04 18:58:56;;;;;;;0.00;0.00;;;;;;;;;;5038497;28;20212;-71
2022/01/04 19:01:23;;;;;;;0.00;0.00;;;;;;;;;;5037124;28;20668;-71
2022/01/04 19:03:52;;;;;;;0.93;0.53;;;;;;;;;;5037207;28;20211;-72
2022/01/04 19:06:20;;;;;;;0.00;0.00;;;;;;;;;;5038656;28;20215;-71
2022/01/04 19:08:48;;;;;;;2.00;1.90;;;;;;;;;;5042639;28;20218;-71
2022/01/04 19:11:15;;;;;;;0.00;0.00;;;;;;;;;;5035651;28;20196;-71
2022/01/04 19:13:46;;;;;;;0.00;0.00;;;;;;;;;;5036903;28;20214;-72
2022/01/04 19:16:13;;;;;;;0.10;0.10;;;;;;;;;;5039612;28;20277;-71
2022/01/04 19:18:42;;;;;;;0.00;0.00;;;;;;;;;;5038307;28;20701;-70
2022/01/04 19:21:11;;;;;;;0.00;0.00;;;;;;;;;;5037413;28;20272;-70
2022/01/04 19:23:39;;;;;;;0.00;0.00;;;;;;;;;;5037512;28;20212;-71
2022/01/04 19:26:06;;;;;;;0.00;0.00;;;;;;;;;;5040511;28;20207;-71
2022/01/04 19:28:34;;;;;;;0.00;0.00;;;;;;;;;;5036221;28;20211;-71
2022/01/04 19:31:05;;;;;;;0.00;0.00;;;;;;;;;;5040794;28;20211;-71
2022/01/04 19:36:15;;;;;;;0.00;0.00;;;;;;;;;;5003596;28;20620;-70
2022/01/04 19:38:43;;;;;;;0.00;0.00;;;;;;;;;;5038312;28;20212;-71
2022/01/04 19:41:12;;;;;;;0.00;0.00;;;;;;;;;;5040840;28;20199;-70
2022/01/04 19:43:40;;;;;;;0.00;0.00;;;;;;;;;;5037079;28;20673;-71
2022/01/04 19:46:09;;;;;;;0.00;0.00;;;;;;;;;;5038137;28;20212;-71
2022/01/04 19:48:37;;;;;;;0.00;0.00;;;;;;;;;;5037753;28;20219;-71
2022/01/04 19:51:05;;;;;;;0.17;0.17;;;;;;;;;;5039215;28;20207;-71
2022/01/04 19:53:33;;;;;;;0.00;0.00;;;;;;;;;;5037684;28;20196;-70
2022/01/04 19:56:00;;;;;;;0.00;0.00;;;;;;;;;;5036950;28;20235;-70
2022/01/04 19:58:28;;;;;;;0.00;0.00;;;;;;;;;;5036447;28;20694;-70
2022/01/04 20:00:55;;;;;;;0.43;0.43;;;;;;;;;;5035131;28;20698;-71
2022/01/04 20:03:25;;;;;;;0.00;0.00;;;;;;;;;;5040249;28;20212;-71
2022/01/04 20:05:53;;;;;;;0.00;0.00;;;;;;;;;;5041914;28;20211;-70
2022/01/04 20:08:20;;;;;;;0.20;0.20;;;;;;;;;;5042889;28;20200;-69
2022/01/04 20:10:49;;;;;;;0.00;0.00;;;;;;;;;;5043789;28;20214;-70
2022/01/04 20:13:16;;;;;;;0.30;0.30;;;;;;;;;;5042429;28;20210;-71
2022/01/04 20:15:44;;;;;;;0.10;0.10;;;;;;;;;;5041418;28;20227;-70
2022/01/04 20:18:12;;;;;;;0.00;0.00;;;;;;;;;;5035149;28;20200;-70
2022/01/04 20:20:41;;;;;;;0.00;0.00;;;;;;;;;;5036460;28;20207;-70
